Time;durP1;ratioP1;P1;durP2;ratioP2;P2;SDS_P1;SDS_P2;PMS_P1;PMS_P2;Temp;Humidity;BMP_temperature;BMP_pressure;BME280_temperature;BME280_humidity;BME280_pressure;Samples;Min_cycle;Max_cycle;Signal;HPM_P1;HPM_P2
2021/04/03 00:01:05;;;;;;;32.43;12.77;;;;;;;1.97;100.00;94087.81;5095014;28;20329;-79
2021/04/03 00:03:31;;;;;;;33.80;11.80;;;;;;;1.92;100.00;94087.41;5094952;28;20206;-77
2021/04/03 00:05:57;;;;;;;28.23;11.10;;;;;;;1.97;100.00;94082.66;5094583;28;20225;-77
2021/04/03 00:08:24;;;;;;;27.57;10.70;;;;;;;2.00;100.00;94090.91;5094639;28;20206;-76
2021/04/03 00:10:52;;;;;;;24.83;10.87;;;;;;;2.02;100.00;94090.78;5094605;28;20623;-79
2021/04/03 00:13:21;;;;;;;32.67;12.20;;;;;;;1.98;100.00;94092.81;5094812;28;20202;-79
2021/04/03 00:15:48;;;;;;;29.57;11.93;;;;;;;2.07;100.00;94090.34;5094708;28;20212;-78
2021/04/03 00:18:16;;;;;;;35.17;12.97;;;;;;;2.17;100.00;94091.94;5093931;28;20222;-78
2021/04/03 00:20:43;;;;;;;37.50;13.63;;;;;;;2.12;100.00;94083.81;5094323;28;20209;-77
2021/04/03 00:23:10;;;;;;;31.97;11.73;;;;;;;2.10;100.00;94083.16;5094428;28;20209;-78
2021/04/03 00:25:36;;;;;;;29.30;10.93;;;;;;;2.14;100.00;94086.25;5094239;28;20255;-78
2021/04/03 00:28:02;;;;;;;43.00;13.23;;;;;;;2.14;100.00;94076.75;5094538;28;20233;-77
2021/04/03 00:30:29;;;;;;;31.73;11.67;;;;;;;2.14;100.00;94087.06;5094407;28;20198;-78
2021/04/03 00:32:57;;;;;;;28.07;11.80;;;;;;;2.14;100.00;94083.69;5094135;28;20230;-77
2021/04/03 00:35:26;;;;;;;29.17;11.70;;;;;;;2.09;100.00;94081.53;5094282;28;20202;-77
2021/04/03 00:37:53;;;;;;;34.67;11.73;;;;;;;2.19;100.00;94074.56;5093962;28;20704;-77
2021/04/03 00:40:21;;;;;;;28.03;11.70;;;;;;;2.10;100.00;94079.75;5094090;28;20653;-78
2021/04/03 00:42:48;;;;;;;31.57;13.17;;;;;;;2.05;100.00;94077.63;5094192;28;20198;-78
2021/04/03 00:45:16;;;;;;;26.70;11.20;;;;;;;1.98;100.00;94072.22;5094113;28;20279;-77
2021/04/03 00:47:43;;;;;;;34.03;12.77;;;;;;;2.03;100.00;94076.94;5094033;28;20289;-78
2021/04/03 00:50:10;;;;;;;32.30;11.17;;;;;;;2.04;100.00;94070.84;5093867;28;20202;-76
2021/04/03 00:52:38;;;;;;;30.33;12.07;;;;;;;1.95;100.00;94081.97;5093820;28;20301;-78
2021/04/03 00:55:06;;;;;;;33.50;11.57;;;;;;;1.91;100.00;94081.44;5094072;28;20210;-77
2021/04/03 00:57:32;;;;;;;34.53;12.60;;;;;;;2.00;100.00;94074.66;5093876;28;20226;-78
2021/04/03 00:59:58;;;;;;;26.73;11.63;;;;;;;2.09;100.00;94068.66;5093672;28;20652;-77
2021/04/03 01:02:24;;;;;;;35.07;11.50;;;;;;;2.12;100.00;94067.56;5093814;28;20285;-78
2021/04/03 01:04:51;;;;;;;32.00;11.63;;;;;;;2.07;100.00;94065.41;5093723;28;20578;-77
2021/04/03 01:07:17;;;;;;;31.47;10.77;;;;;;;2.07;100.00;94062.03;5093583;28;20576;-77
2021/04/03 01:09:45;;;;;;;28.53;10.80;;;;;;;1.99;100.00;94062.72;5093688;28;20205;-77
2021/04/03 01:12:19;;;;;;;29.87;11.57;;;;;;;1.88;100.00;94070.63;5092912;28;20194;-76
2021/04/03 01:14:54;;;;;;;23.27;9.90;;;;;;;1.81;100.00;94067.78;5093627;28;20201;-77
2021/04/03 01:17:28;;;;;;;29.93;10.93;;;;;;;1.83;100.00;94079.59;5093370;28;20226;-77
2021/04/03 01:20:16;;;;;;;32.67;10.30;;;;;;;1.94;100.00;94081.16;5093605;28;20298;-77
2021/04/03 01:23:01;;;;;;;26.67;10.67;;;;;;;1.92;100.00;94084.84;5093505;28;20199;-77
2021/04/03 01:25:45;;;;;;;26.03;10.27;;;;;;;1.97;100.00;94080.09;5093452;28;20225;-77
2021/04/03 01:28:35;;;;;;;26.97;9.47;;;;;;;2.01;100.00;94086.56;5093489;28;20186;-76
2021/04/03 01:31:02;;;;;;;25.83;9.57;;;;;;;2.02;100.00;94075.31;5093327;28;20197;-79
2021/04/03 01:33:31;;;;;;;27.27;11.07;;;;;;;1.91;100.00;94083.22;5093586;28;20249;-77
2021/04/03 01:36:03;;;;;;;25.47;9.30;;;;;;;1.96;100.00;94084.41;5093238;28;20222;-77
2021/04/03 01:38:34;;;;;;;29.40;10.80;;;;;;;1.97;100.00;94090.38;5093066;28;20222;-77
2021/04/03 01:41:02;;;;;;;25.13;9.83;;;;;;;1.87;100.00;94079.31;5093283;28;20233;-79
2021/04/03 01:43:39;;;;;;;30.70;9.27;;;;;;;1.86;100.00;94081.03;5093189;28;20221;-77
2021/04/03 01:46:08;;;;;;;23.80;9.13;;;;;;;1.85;100.00;94080.25;5093083;28;20204;-79
2021/04/03 01:48:37;;;;;;;21.97;9.50;;;;;;;1.93;100.00;94076.97;5093001;28;20719;-77
2021/04/03 01:51:04;;;;;;;22.23;9.63;;;;;;;2.09;100.00;94081.53;5092885;28;20233;-77
2021/04/03 01:53:32;;;;;;;22.23;8.27;;;;;;;2.07;100.00;94070.56;5093215;28;20564;-78
2021/04/03 01:56:01;;;;;;;22.20;8.20;;;;;;;1.91;100.00;94068.56;5093094;28;20222;-77
2021/04/03 01:58:29;;;;;;;17.67;8.20;;;;;;;1.85;100.00;94072.53;5092921;28;20225;-77
2021/04/03 02:00:57;;;;;;;20.97;8.40;;;;;;;1.86;100.00;94073.31;5092932;28;20198;-80
2021/04/03 02:03:24;;;;;;;27.33;10.43;;;;;;;1.93;100.00;94076.16;5092032;28;20941;-79
2021/04/03 02:05:50;;;;;;;19.80;8.43;;;;;;;2.03;100.00;94069.19;5093090;28;20206;-77
2021/04/03 02:08:19;;;;;;;16.47;7.07;;;;;;;1.97;100.00;94073.16;5092999;28;20198;-78
2021/04/03 02:10:47;;;;;;;22.53;8.43;;;;;;;1.97;100.00;94077.50;5092627;28;20201;-79
2021/04/03 02:13:15;;;;;;;17.17;7.57;;;;;;;2.00;100.00;94075.47;5092791;28;20564;-78
2021/04/03 02:15:42;;;;;;;22.40;8.10;;;;;;;2.03;100.00;94080.34;5092647;28;20209;-78
2021/04/03 02:18:09;;;;;;;22.73;8.47;;;;;;;2.16;100.00;94071.47;5092573;28;20282;-78
2021/04/03 02:20:36;;;;;;;18.20;7.30;;;;;;;2.17;100.00;94073.09;5091969;28;20209;-78
2021/04/03 02:23:02;;;;;;;14.90;7.30;;;;;;;2.17;100.00;94071.31;5095464;28;20198;-78
2021/04/03 02:25:28;;;;;;;19.67;8.10;;;;;;;2.22;100.00;94061.41;5096856;28;20195;-77
2021/04/03 02:27:54;;;;;;;17.10;7.57;;;;;;;2.25;100.00;94062.06;5096620;28;20198;-78
2021/04/03 02:30:23;;;;;;;17.87;7.13;;;;;;;2.10;100.00;94057.41;5096737;28;20198;-79
2021/04/03 02:32:53;;;;;;;15.47;7.03;;;;;;;2.17;100.00;94060.22;5096313;28;20276;-78
2021/04/03 02:35:21;;;;;;;13.67;6.47;;;;;;;2.18;100.00;94052.34;5096717;28;20213;-77
2021/04/03 02:37:53;;;;;;;15.87;6.67;;;;;;;2.19;100.00;94053.97;5096545;28;20237;-78
2021/04/03 02:40:22;;;;;;;13.87;6.30;;;;;;;2.19;100.00;94055.72;5096576;28;20197;-78
2021/04/03 02:42:54;;;;;;;11.63;6.27;;;;;;;2.11;100.00;94058.22;5096406;28;20819;-78
2021/04/03 02:45:24;;;;;;;16.50;7.10;;;;;;;2.07;100.00;94054.31;5096612;28;20193;-78
2021/04/03 02:47:53;;;;;;;17.13;7.03;;;;;;;2.01;100.00;94053.88;5096460;28;20205;-78
2021/04/03 02:50:23;;;;;;;15.37;6.50;;;;;;;2.04;100.00;94056.19;5096393;28;20194;-77
2021/04/03 02:52:52;;;;;;;16.70;7.13;;;;;;;1.95;100.00;94046.75;5096177;28;20202;-77
2021/04/03 02:55:19;;;;;;;17.47;6.80;;;;;;;1.98;100.00;94051.63;5096238;28;20201;-78
2021/04/03 02:57:47;;;;;;;23.60;6.97;;;;;;;2.01;100.00;94056.47;5095936;28;20226;-78
2021/04/03 03:00:15;;;;;;;16.52;6.53;;;;;;;1.94;100.00;94064.91;5095917;28;20440;-77
2021/04/03 03:02:42;;;;;;;21.53;7.37;;;;;;;1.87;100.00;94063.88;5096157;28;20213;-77
2021/04/03 03:05:10;;;;;;;13.50;6.33;;;;;;;1.80;100.00;94063.59;5096033;28;20241;-76
2021/04/03 03:07:40;;;;;;;20.17;7.27;;;;;;;1.76;100.00;94059.69;5095912;28;20224;-77
2021/04/03 03:10:08;;;;;;;17.40;6.37;;;;;;;1.82;100.00;94067.66;5095910;28;20202;-76
2021/04/03 03:12:38;;;;;;;17.27;6.73;;;;;;;1.92;100.00;94066.81;5096045;28;20205;-77
2021/04/03 03:15:05;;;;;;;17.37;6.60;;;;;;;1.94;100.00;94064.91;5095716;28;20198;-77
2021/04/03 03:17:31;;;;;;;16.40;6.90;;;;;;;1.85;100.00;94066.56;5095788;28;20218;-77
2021/04/03 03:20:02;;;;;;;15.00;6.50;;;;;;;1.82;100.00;94072.78;5095773;28;20195;-76
2021/04/03 03:22:29;;;;;;;18.73;6.60;;;;;;;1.78;100.00;94066.31;5095684;28;20202;-76
2021/04/03 03:24:55;;;;;;;17.93;6.70;;;;;;;1.77;100.00;94074.97;5095619;28;20281;-77
2021/04/03 03:27:24;;;;;;;17.27;6.07;;;;;;;1.69;100.00;94072.28;5095782;28;20275;-77
2021/04/03 03:29:51;;;;;;;16.77;6.43;;;;;;;1.74;100.00;94082.97;5095600;28;20572;-77
2021/04/03 03:32:17;;;;;;;15.63;6.17;;;;;;;1.76;100.00;94070.78;5095443;28;20226;-77
2021/04/03 03:34:43;;;;;;;14.60;5.47;;;;;;;1.64;100.00;94074.47;5094183;28;20236;-76
2021/04/03 03:37:10;;;;;;;13.60;6.60;;;;;;;1.71;100.00;94078.09;5095226;28;20257;-76
2021/04/03 03:39:37;;;;;;;22.97;7.20;;;;;;;1.69;100.00;94082.59;5095357;28;20545;-77
2021/04/03 03:42:05;;;;;;;14.13;6.60;;;;;;;1.63;100.00;94077.97;5095415;28;20198;-76
2021/04/03 03:44:32;;;;;;;18.47;6.47;;;;;;;1.66;100.00;94077.72;5095181;28;20209;-76
2021/04/03 03:46:58;;;;;;;15.63;7.22;;;;;;;1.69;100.00;94072.28;5094431;28;20443;-77
2021/04/03 03:49:30;;;;;;;11.97;6.40;;;;;;;1.63;100.00;94063.38;5095218;28;20549;-77
2021/04/03 03:51:56;;;;;;;12.63;6.00;;;;;;;1.61;100.00;94064.44;5095046;28;20206;-76
2021/04/03 03:54:22;;;;;;;13.83;5.63;;;;;;;1.62;100.00;94059.16;5095246;28;20217;-78
2021/04/03 03:56:50;;;;;;;18.83;6.67;;;;;;;1.66;100.00;94057.13;5095126;28;20202;-77
2021/04/03 03:59:16;;;;;;;19.83;5.57;;;;;;;1.61;100.00;94067.03;5094988;28;20202;-76
2021/04/03 04:01:43;;;;;;;16.67;5.57;;;;;;;1.58;100.00;94069.88;5094950;28;20206;-77
2021/04/03 04:04:09;;;;;;;12.70;5.93;;;;;;;1.53;100.00;94064.31;5094731;28;20194;-77
2021/04/03 04:06:37;;;;;;;12.43;5.13;;;;;;;1.53;100.00;94066.91;5095062;28;20205;-77
2021/04/03 04:09:03;;;;;;;16.97;6.13;;;;;;;1.59;100.00;94061.22;5094887;28;20198;-78
2021/04/03 04:11:30;;;;;;;10.63;5.50;;;;;;;1.52;100.00;94060.16;5094754;28;20209;-77
2021/04/03 04:13:56;;;;;;;15.63;6.10;;;;;;;1.51;100.00;94058.50;5094630;28;20653;-77
2021/04/03 04:16:22;;;;;;;15.23;5.93;;;;;;;1.51;99.19;94058.50;5094643;28;20206;-76
2021/04/03 04:18:51;;;;;;;16.07;5.27;;;;;;;1.43;99.35;94056.63;5093835;28;20680;-77
2021/04/03 04:21:18;;;;;;;13.73;6.43;;;;;;;1.41;98.98;94061.91;5094279;28;20490;-77
2021/04/03 04:23:44;;;;;;;22.43;6.90;;;;;;;1.39;100.00;94053.50;5094651;28;20243;-76
2021/04/03 04:26:10;;;;;;;13.77;6.13;;;;;;;1.38;100.00;94069.91;5094296;28;20661;-77
2021/04/03 04:28:36;;;;;;;21.97;5.50;;;;;;;1.39;99.92;94076.66;5094457;28;20204;-78
2021/04/03 04:31:02;;;;;;;11.07;4.93;;;;;;;1.42;99.39;94071.25;5094167;28;20191;-77
2021/04/03 04:33:28;;;;;;;12.13;5.87;;;;;;;1.36;99.20;94073.56;5094129;28;20206;-77
2021/04/03 04:35:55;;;;;;;19.27;5.93;;;;;;;1.29;100.00;94078.44;5094113;28;20289;-77
2021/04/03 04:38:22;;;;;;;15.97;5.23;;;;;;;1.27;99.74;94072.63;5094250;28;20239;-77
2021/04/03 04:40:48;;;;;;;16.17;5.40;;;;;;;1.40;98.71;94073.16;5094266;28;20200;-77
2021/04/03 04:43:14;;;;;;;10.27;5.40;;;;;;;1.32;99.07;94072.22;5081490;28;20255;-76
2021/04/03 04:45:40;;;;;;;12.87;5.47;;;;;;;1.30;100.00;94077.50;5093928;28;20213;-76
2021/04/03 04:48:07;;;;;;;16.87;5.23;;;;;;;1.24;99.82;94078.03;5094106;28;20198;-76
2021/04/03 04:50:33;;;;;;;17.23;5.70;;;;;;;1.20;100.00;94084.38;5094112;28;20202;-77
2021/04/03 04:53:00;;;;;;;14.27;5.07;;;;;;;1.28;99.47;94084.53;5093911;28;20197;-77
2021/04/03 04:55:26;;;;;;;11.27;5.33;;;;;;;1.28;98.99;94089.66;5093940;28;20226;-77
2021/04/03 04:57:52;;;;;;;14.37;5.27;;;;;;;1.28;99.73;94084.53;5093710;28;20706;-78
2021/04/03 05:00:19;;;;;;;13.02;6.53;;;;;;;1.20;100.00;94090.34;5092538;28;20459;-78
2021/04/03 05:02:45;;;;;;;13.70;5.47;;;;;;;1.17;100.00;94097.53;5093679;28;20201;-77
2021/04/03 05:05:12;;;;;;;9.97;5.30;;;;;;;1.25;100.00;94100.22;5093832;28;20682;-76
2021/04/03 05:07:38;;;;;;;14.37;5.10;;;;;;;1.32;100.00;94114.19;5093816;28;20283;-77
2021/04/03 05:10:06;;;;;;;13.53;5.70;;;;;;;1.30;99.09;94110.94;5093713;28;20668;-79
2021/04/03 05:12:32;;;;;;;10.47;5.23;;;;;;;1.41;98.66;94113.34;5093648;28;20611;-77
2021/04/03 05:14:58;;;;;;;14.70;5.57;;;;;;;1.31;100.00;94122.81;5093290;28;20460;-78
2021/04/03 05:17:24;;;;;;;15.97;5.70;;;;;;;1.42;100.00;94120.13;5093369;28;20226;-77
2021/04/03 05:19:50;;;;;;;14.57;5.20;;;;;;;1.35;99.86;94121.63;5093718;28;20243;-77
2021/04/03 05:22:16;;;;;;;58.23;22.13;;;;;;;1.40;98.98;94124.59;5093389;28;20549;-77
2021/04/03 05:24:42;;;;;;;15.57;4.63;;;;;;;1.29;99.81;94127.31;5093546;28;20198;-77
2021/04/03 05:27:09;;;;;;;11.03;4.83;;;;;;;1.36;100.00;94133.53;5093424;28;20225;-78
2021/04/03 05:29:35;;;;;;;9.10;5.13;;;;;;;1.36;99.96;94132.72;5093230;28;20194;-77
2021/04/03 05:32:05;;;;;;;16.87;5.17;;;;;;;1.38;98.72;94123.94;5093340;28;20230;-78
2021/04/03 05:34:31;;;;;;;7.60;4.47;;;;;;;1.25;99.55;94133.66;5093216;28;20202;-80
2021/04/03 05:36:57;;;;;;;17.37;5.07;;;;;;;1.07;100.00;94134.31;5093046;28;20252;-77
2021/04/03 05:39:23;;;;;;;12.47;4.40;;;;;;;1.01;99.96;94137.41;5093205;28;20198;-77
2021/04/03 05:41:49;;;;;;;13.33;5.13;;;;;;;1.00;99.56;94148.66;5093234;28;20209;-77
2021/04/03 05:44:20;;;;;;;9.43;4.83;;;;;;;0.92;100.00;94153.66;5092984;28;20201;-77
2021/04/03 05:46:47;;;;;;;17.27;5.13;;;;;;;0.85;100.00;94160.25;5093097;28;20661;-77
2021/04/03 05:49:13;;;;;;;12.32;4.90;;;;;;;0.84;100.00;94148.34;5093127;28;20382;-77
2021/04/03 05:51:40;;;;;;;16.50;4.43;;;;;;;0.76;100.00;94156.72;5093108;28;20293;-77
2021/04/03 05:54:06;;;;;;;10.73;5.60;;;;;;;0.76;100.00;94158.47;5093100;28;20198;-77
2021/04/03 05:56:32;;;;;;;9.87;4.80;;;;;;;0.86;100.00;94164.44;5092589;28;20292;-77
2021/04/03 05:58:58;;;;;;;10.10;4.90;;;;;;;1.19;100.00;94153.00;5092778;28;20235;-79
2021/04/03 06:01:25;;;;;;;10.57;5.03;;;;;;;1.48;99.69;94162.50;5093083;28;20194;-78
2021/04/03 06:03:52;;;;;;;11.17;5.00;;;;;;;1.67;97.33;94166.84;5092989;28;20198;-78
2021/04/03 06:06:18;;;;;;;13.93;4.90;;;;;;;1.85;97.10;94164.38;5092895;28;20224;-77
2021/04/03 06:08:45;;;;;;;15.20;4.93;;;;;;;2.18;95.66;94164.84;5092452;28;20198;-77
2021/04/03 06:11:15;;;;;;;9.50;5.00;;;;;;;2.37;94.01;94164.00;5092618;28;20194;-78
2021/04/03 06:14:02;;;;;;;12.70;4.77;;;;;;;2.55;92.95;94157.16;5092739;28;20212;-77
2021/04/03 06:16:31;;;;;;;13.40;5.20;;;;;;;2.68;93.06;94161.97;5092965;28;20206;-77
2021/04/03 06:19:12;;;;;;;15.30;4.80;;;;;;;2.99;90.90;94164.25;5092721;28;20354;-77
2021/04/03 06:21:39;;;;;;;8.17;4.13;;;;;;;3.02;89.22;94165.75;5092695;28;20198;-76
2021/04/03 06:24:20;;;;;;;11.70;4.37;;;;;;;2.85;89.11;94168.13;5092711;28;20201;-76
2021/04/03 06:26:54;;;;;;;11.10;4.10;;;;;;;2.86;87.90;94168.94;5092869;28;20205;-76
2021/04/03 06:29:26;;;;;;;9.00;3.20;;;;;;;2.78;89.28;94178.22;5092795;28;20285;-78
2021/04/03 06:31:54;;;;;;;9.03;4.17;;;;;;;2.73;90.24;94169.25;5092485;28;20233;-76
2021/04/03 06:34:37;;;;;;;12.93;3.67;;;;;;;2.68;89.83;94177.44;5092663;28;20207;-77
2021/04/03 06:37:05;;;;;;;11.57;4.10;;;;;;;2.72;90.13;94177.97;5092643;28;20202;-77
2021/04/03 06:39:50;;;;;;;7.47;3.80;;;;;;;2.90;89.40;94186.56;5092681;28;20205;-77
2021/04/03 06:42:36;;;;;;;6.50;3.50;;;;;;;3.08;88.50;94176.31;5092587;28;20599;-78
2021/04/03 06:45:18;;;;;;;7.93;3.40;;;;;;;3.45;88.11;94179.72;5092843;28;20198;-76
2021/04/03 06:47:50;;;;;;;9.70;3.40;;;;;;;3.54;87.11;94180.63;5092561;28;20205;-77
2021/04/03 06:50:20;;;;;;;8.13;3.20;;;;;;;3.34;85.79;94186.72;5092548;28;20292;-77
2021/04/03 06:52:50;;;;;;;10.53;3.47;;;;;;;3.42;85.66;94180.03;5092585;28;20213;-78
2021/04/03 06:55:21;;;;;;;7.17;3.20;;;;;;;3.21;87.47;94188.03;5092391;28;20255;-77
2021/04/03 06:57:51;;;;;;;10.33;3.93;;;;;;;3.06;87.47;94185.13;5092346;28;20233;-77
2021/04/03 07:00:19;;;;;;;9.67;3.27;;;;;;;3.33;86.99;94186.84;5092607;28;20256;-77
2021/04/03 07:02:54;;;;;;;5.63;3.07;;;;;;;3.46;85.25;94181.34;5092411;28;20198;-77
2021/04/03 07:05:21;;;;;;;10.87;3.10;;;;;;;3.36;83.26;94191.72;5092333;28;20808;-78
2021/04/03 07:07:48;;;;;;;9.47;3.03;;;;;;;3.33;84.02;94187.69;5092157;28;20263;-78
2021/04/03 07:10:16;;;;;;;15.37;3.33;;;;;;;3.07;85.69;94199.66;5095173;28;20194;-77
2021/04/03 07:12:42;;;;;;;13.27;3.23;;;;;;;3.29;85.34;94196.66;5095965;28;20194;-77
2021/04/03 07:15:09;;;;;;;4.83;3.00;;;;;;;3.51;84.73;94187.69;5095997;28;20201;-77
2021/04/03 07:17:39;;;;;;;10.60;3.50;;;;;;;3.61;84.89;94186.81;5095825;28;20589;-77
2021/04/03 07:20:10;;;;;;;9.27;3.57;;;;;;;4.00;83.30;94189.88;5095583;28;20663;-77
2021/04/03 07:22:37;;;;;;;7.85;3.33;;;;;;;3.78;80.97;94177.41;5095698;28;20440;-77
2021/04/03 07:25:07;;;;;;;3.13;2.47;;;;;;;3.79;81.29;94176.47;5095587;28;20652;-76
2021/04/03 07:27:33;;;;;;;5.03;2.87;;;;;;;3.72;80.96;94181.41;5095645;28;20560;-76
2021/04/03 07:29:59;;;;;;;5.30;2.50;;;;;;;3.58;82.24;94177.59;5095541;28;20206;-77
2021/04/03 07:32:33;;;;;;;6.60;2.67;;;;;;;3.52;83.63;94184.16;5095271;28;20278;-75
2021/04/03 07:35:00;;;;;;;11.10;3.13;;;;;;;3.31;83.27;94192.19;5095632;28;20206;-77
2021/04/03 07:37:34;;;;;;;7.77;3.33;;;;;;;3.22;85.32;94194.81;5095516;28;20226;-78
2021/04/03 07:40:01;;;;;;;6.97;3.27;;;;;;;3.30;84.67;94200.06;5095510;28;20205;-77
2021/04/03 07:42:37;;;;;;;9.13;3.10;;;;;;;3.41;85.74;94192.09;5095357;28;20580;-77
2021/04/03 07:45:05;;;;;;;12.87;3.37;;;;;;;3.45;84.66;94200.38;5095187;28;20227;-76
2021/04/03 07:47:46;;;;;;;7.10;2.90;;;;;;;3.67;83.18;94199.94;5095096;28;20278;-76
2021/04/03 07:50:12;;;;;;;8.40;3.30;;;;;;;3.92;82.28;94201.94;5095357;28;20228;-76
2021/04/03 07:52:54;;;;;;;8.57;3.77;;;;;;;3.99;81.69;94198.59;5095270;28;20198;-77
2021/04/03 07:55:35;;;;;;;5.43;3.20;;;;;;;3.83;84.08;94206.19;5095080;28;20606;-77
2021/04/03 07:58:26;;;;;;;6.50;3.17;;;;;;;3.77;81.66;94204.22;5094872;28;20222;-76
2021/04/03 08:00:54;;;;;;;9.00;3.43;;;;;;;4.22;82.42;94209.25;5095042;28;20202;-76
2021/04/03 08:03:21;;;;;;;6.53;3.03;;;;;;;4.85;77.91;94209.16;5095045;28;20206;-76
2021/04/03 08:05:49;;;;;;;5.10;2.80;;;;;;;5.14;75.83;94211.38;5094879;28;20194;-76
2021/04/03 08:08:19;;;;;;;7.33;2.73;;;;;;;5.31;74.73;94220.81;5084714;28;20198;-76
2021/04/03 08:10:45;;;;;;;5.70;2.70;;;;;;;4.77;77.46;94226.22;5094880;28;20632;-76
2021/04/03 08:13:12;;;;;;;8.97;3.17;;;;;;;4.16;79.92;94216.78;5094732;28;20289;-75
2021/04/03 08:15:42;;;;;;;9.43;3.87;;;;;;;3.96;80.00;94216.94;5094035;28;20605;-76
2021/04/03 08:18:09;;;;;;;7.23;3.23;;;;;;;3.85;80.94;94219.78;5094275;28;20226;-75
2021/04/03 08:20:35;;;;;;;12.27;3.07;;;;;;;4.02;80.87;94231.88;5093915;28;20202;-77
2021/04/03 08:23:02;;;;;;;8.13;3.27;;;;;;;3.98;81.71;94222.81;5094705;28;20202;-77
2021/04/03 08:25:32;;;;;;;6.50;3.10;;;;;;;3.88;81.63;94227.22;5094518;28;20197;-75
2021/04/03 08:27:59;;;;;;;11.70;3.53;;;;;;;4.38;80.79;94228.41;5094546;28;20198;-76
2021/04/03 08:30:30;;;;;;;7.70;3.20;;;;;;;4.42;79.65;94232.34;5094279;28;20201;-77
2021/04/03 08:33:11;;;;;;;6.47;2.70;;;;;;;4.49;76.98;94229.94;5094141;28;20245;-77
2021/04/03 08:35:39;;;;;;;7.87;3.57;;;;;;;4.42;78.10;94227.97;5094428;28;20251;-76
2021/04/03 08:38:15;;;;;;;11.60;4.07;;;;;;;4.79;75.47;94239.81;5094033;28;20696;-77
2021/04/03 08:40:43;;;;;;;4.37;2.63;;;;;;;5.06;71.23;94232.84;5094035;28;20194;-76
2021/04/03 08:43:15;;;;;;;5.10;2.87;;;;;;;5.74;71.14;94231.09;5094241;28;20296;-76
2021/04/03 08:45:42;;;;;;;9.07;3.23;;;;;;;5.86;70.41;94239.38;5094095;28;20202;-77
2021/04/03 08:48:09;;;;;;;4.57;2.20;;;;;;;5.50;69.71;94240.44;5094281;28;20208;-76
2021/04/03 08:50:35;;;;;;;6.87;2.60;;;;;;;5.37;67.43;94251.25;5093968;28;20205;-75
2021/04/03 08:53:04;;;;;;;4.37;1.93;;;;;;;5.50;69.46;94240.44;5094101;28;20211;-75
2021/04/03 08:55:30;;;;;;;7.33;3.20;;;;;;;5.51;68.31;94252.44;5093935;28;20205;-76
2021/04/03 08:57:58;;;;;;;3.70;2.30;;;;;;;5.13;68.97;94238.19;5093586;28;20226;-75
2021/04/03 09:00:25;;;;;;;9.40;3.13;;;;;;;5.28;69.80;94241.00;5094032;28;20209;-76
2021/04/03 09:02:52;;;;;;;8.53;2.83;;;;;;;5.14;72.06;94245.81;5093958;28;20209;-77
2021/04/03 09:05:19;;;;;;;7.77;2.57;;;;;;;5.14;71.98;94248.41;5093834;28;20228;-78
2021/04/03 09:07:45;;;;;;;5.33;2.73;;;;;;;5.02;70.14;94246.25;5093771;28;20205;-76
2021/04/03 09:10:14;;;;;;;5.57;2.63;;;;;;;4.86;71.12;94255.53;5093682;28;20292;-76
2021/04/03 09:12:40;;;;;;;4.30;2.40;;;;;;;5.02;70.60;94262.59;5093606;28;20217;-76
2021/04/03 09:15:09;;;;;;;5.77;2.27;;;;;;;5.25;68.39;94256.88;5093813;28;20271;-76
2021/04/03 09:17:45;;;;;;;4.97;2.37;;;;;;;5.19;67.99;94259.09;5093245;28;20552;-77
2021/04/03 09:20:14;;;;;;;5.60;2.37;;;;;;;5.56;66.19;94254.53;5093409;28;20678;-76
2021/04/03 09:22:42;;;;;;;3.87;2.10;;;;;;;5.55;68.97;94258.91;5093496;28;20201;-75
2021/04/03 09:25:11;;;;;;;5.73;2.67;;;;;;;5.89;65.58;94263.19;5093432;28;20205;-77
2021/04/03 09:27:37;;;;;;;15.57;2.30;;;;;;;6.36;63.16;94256.63;5093504;28;20201;-76
2021/04/03 09:30:06;;;;;;;2.37;1.53;;;;;;;6.93;61.16;94263.53;5093382;28;20198;-76
2021/04/03 09:32:40;;;;;;;5.00;1.90;;;;;;;7.21;62.55;94253.56;5092375;28;20622;-76
2021/04/03 09:35:08;;;;;;;3.97;1.87;;;;;;;7.20;60.25;94251.13;5093232;28;20198;-76
2021/04/03 09:37:34;;;;;;;7.50;2.20;;;;;;;7.23;59.03;94253.38;5093050;28;20206;-75
2021/04/03 09:40:01;;;;;;;6.00;2.33;;;;;;;7.33;62.15;94264.38;5092433;28;20436;-77
2021/04/03 09:42:28;;;;;;;4.63;1.80;;;;;;;7.31;60.25;94266.34;5093183;28;20234;-77
2021/04/03 09:44:57;;;;;;;4.37;1.80;;;;;;;6.81;59.50;94260.47;5093173;28;20204;-75
2021/04/03 09:47:24;;;;;;;4.00;2.20;;;;;;;6.32;59.94;94262.31;5093121;28;20198;-75
2021/04/03 09:49:51;;;;;;;5.90;2.22;;;;;;;6.61;60.36;94267.81;5091925;28;20468;-74
2021/04/03 09:52:18;;;;;;;4.20;1.80;;;;;;;6.23;61.25;94277.06;5092892;28;20202;-76
2021/04/03 09:54:45;;;;;;;4.50;2.20;;;;;;;5.98;60.63;94289.16;5093263;28;20217;-76
2021/04/03 09:57:12;;;;;;;4.83;1.90;;;;;;;5.23;62.46;94284.66;5093056;28;20208;-77
2021/04/03 09:59:39;;;;;;;3.43;2.10;;;;;;;4.95;64.23;94285.69;5092897;28;20301;-75
2021/04/03 10:02:05;;;;;;;6.23;2.47;;;;;;;5.08;66.50;94287.03;5092881;28;20198;-77
2021/04/03 10:04:31;;;;;;;6.57;2.33;;;;;;;5.07;64.79;94291.41;5092637;28;20225;-76
2021/04/03 10:06:59;;;;;;;4.37;2.20;;;;;;;5.31;66.62;94282.13;5092086;28;20641;-76
2021/04/03 10:09:26;;;;;;;6.70;3.13;;;;;;;5.21;67.13;94286.59;5092954;28;20206;-75
2021/04/03 10:11:53;;;;;;;5.50;2.50;;;;;;;5.50;66.58;94281.88;5092869;28;20624;-75
2021/04/03 10:14:19;;;;;;;4.73;1.93;;;;;;;5.22;68.28;94291.63;5092662;28;20675;-75
2021/04/03 10:16:45;;;;;;;8.60;2.90;;;;;;;5.51;67.13;94288.69;5092275;28;20503;-76
2021/04/03 10:19:12;;;;;;;7.17;2.43;;;;;;;5.88;67.71;94290.09;5092686;28;20226;-75
2021/04/03 10:21:38;;;;;;;9.13;2.77;;;;;;;6.03;65.21;94300.69;5092666;28;20251;-74
2021/04/03 10:24:06;;;;;;;6.47;2.90;;;;;;;5.89;65.33;94290.88;5092840;28;20198;-75
2021/04/03 10:26:33;;;;;;;5.20;2.50;;;;;;;6.44;65.61;94289.53;5092684;28;20198;-75
2021/04/03 10:28:59;;;;;;;8.03;2.73;;;;;;;6.22;65.74;94278.81;5092715;28;20209;-75
2021/04/03 10:31:25;;;;;;;3.40;2.37;;;;;;;6.37;64.55;94283.38;5092475;28;20329;-75
2021/04/03 10:33:51;;;;;;;5.47;2.60;;;;;;;6.38;63.36;94279.78;5092542;28;20206;-74
2021/04/03 10:36:17;;;;;;;7.67;2.80;;;;;;;6.06;63.75;94273.59;5092727;28;20249;-75
2021/04/03 10:38:45;;;;;;;4.73;2.37;;;;;;;5.99;62.94;94272.63;5092616;28;20230;-75
2021/04/03 10:41:12;;;;;;;5.73;2.30;;;;;;;6.37;63.38;94281.56;5092668;28;20205;-76
2021/04/03 10:43:41;;;;;;;3.93;2.20;;;;;;;6.69;62.93;94281.72;5094405;28;20194;-75
2021/04/03 10:46:08;;;;;;;6.23;2.27;;;;;;;6.67;63.11;94280.09;5096365;28;20194;-75
2021/04/03 10:48:35;;;;;;;6.90;2.70;;;;;;;6.39;60.96;94289.19;5096364;28;20236;-75
2021/04/03 10:51:04;;;;;;;5.33;2.20;;;;;;;6.07;61.11;94286.41;5096362;28;20209;-76
2021/04/03 10:53:30;;;;;;;4.67;2.37;;;;;;;6.05;60.42;94295.34;5096275;28;20604;-77
2021/04/03 10:55:56;;;;;;;5.55;2.60;;;;;;;5.90;62.13;94292.53;5095060;28;20519;-76
2021/04/03 10:58:23;;;;;;;10.63;2.80;;;;;;;5.84;62.10;94293.94;5096120;28;20226;-75
2021/04/03 11:00:49;;;;;;;5.67;2.33;;;;;;;6.24;62.22;94284.63;5095992;28;20717;-75
2021/04/03 11:03:15;;;;;;;9.13;3.10;;;;;;;6.39;60.38;94286.59;5095978;28;20671;-74
2021/04/03 11:05:41;;;;;;;4.85;2.58;;;;;;;6.44;59.48;94292.13;5095137;28;20519;-77
2021/04/03 11:08:07;;;;;;;4.33;2.50;;;;;;;6.51;58.89;94290.47;5096022;28;20240;-77
2021/04/03 11:10:33;;;;;;;5.70;2.13;;;;;;;6.34;60.23;94288.88;5095776;28;20660;-74
2021/04/03 11:12:59;;;;;;;3.50;2.23;;;;;;;6.17;63.37;94288.84;5095922;28;20298;-76
2021/04/03 11:15:26;;;;;;;5.43;2.30;;;;;;;6.19;60.49;94286.09;5095746;28;20198;-74
2021/04/03 11:17:52;;;;;;;7.87;2.83;;;;;;;6.52;61.67;94286.94;5095641;28;20222;-75
2021/04/03 11:20:19;;;;;;;5.10;2.20;;;;;;;7.23;62.08;94281.94;5095650;28;20664;-75
2021/04/03 11:22:45;;;;;;;6.30;2.37;;;;;;;7.58;57.21;94288.47;5095744;28;20202;-76
2021/04/03 11:25:12;;;;;;;4.70;1.87;;;;;;;6.89;58.69;94287.38;5095786;28;20205;-74
2021/04/03 11:27:38;;;;;;;5.30;2.30;;;;;;;7.18;59.94;94287.66;5095539;28;20663;-75
2021/04/03 11:30:14;;;;;;;3.87;2.40;;;;;;;7.61;59.86;94287.34;5095415;28;20541;-75
2021/04/03 11:32:46;;;;;;;2.90;1.90;;;;;;;7.75;55.88;94278.81;5095492;28;20253;-75
2021/04/03 11:35:13;;;;;;;4.70;2.30;;;;;;;7.60;57.36;94285.72;5094302;28;20442;-76
2021/04/03 11:37:40;;;;;;;6.97;2.20;;;;;;;7.91;56.45;94288.31;5095286;28;20202;-75